Time;durP1;ratioP1;P1;durP2;ratioP2;P2;SDS_P1;SDS_P2;PMS_P1;PMS_P2;Temp;Humidity;BMP_temperature;BMP_pressure;BME280_temperature;BME280_humidity;BME280_pressure;Samples;Min_cycle;Max_cycle;Signal;HPM_P1;HPM_P2
2023/04/21 00:03:28;;;;;;;;;;;19.80;35.80;;;;;;8394664;28;19931;-45
2023/04/21 00:07:29;;;;;;;;;;;19.80;35.90;;;;;;8395131;28;19920;-45
2023/04/21 00:11:29;;;;;;;;;;;19.80;35.90;;;;;;8395128;28;19912;-44
2023/04/21 00:15:30;;;;;;;;;;;19.80;35.90;;;;;;8394597;28;19916;-45
2023/04/21 00:19:30;;;;;;;;;;;19.70;35.90;;;;;;8395332;28;19924;-45
2023/04/21 00:23:31;;;;;;;;;;;19.80;35.90;;;;;;8394958;28;19948;-44
2023/04/21 00:27:31;;;;;;;;;;;19.70;36.40;;;;;;8394484;28;19921;-46
2023/04/21 00:31:32;;;;;;;;;;;19.70;35.80;;;;;;8394682;28;19913;-46
2023/04/21 00:35:32;;;;;;;;;;;19.70;35.80;;;;;;8394805;28;20035;-44
2023/04/21 00:39:33;;;;;;;;;;;19.70;35.80;;;;;;8394498;28;20016;-45
2023/04/21 00:43:33;;;;;;;;;;;19.70;35.80;;;;;;8394707;28;19916;-45
2023/04/21 00:47:33;;;;;;;;;;;19.70;35.80;;;;;;8394506;28;19923;-45
2023/04/21 00:51:35;;;;;;;;;;;19.70;35.80;;;;;;8393980;28;19917;-44
2023/04/21 00:55:35;;;;;;;;;;;19.70;35.80;;;;;;8394840;28;19920;-44
2023/04/21 00:59:36;;;;;;;;;;;19.60;35.80;;;;;;8394737;28;20421;-45
2023/04/21 01:03:36;;;;;;;;;;;19.60;35.80;;;;;;8392650;28;19920;-45
2023/04/21 01:07:37;;;;;;;;;;;19.60;35.80;;;;;;8394711;28;19917;-45
2023/04/21 01:11:38;;;;;;;;;;;19.60;35.80;;;;;;8399876;28;19923;-45
2023/04/21 01:15:38;;;;;;;;;;;19.60;35.80;;;;;;8399662;28;19920;-44
2023/04/21 01:19:40;;;;;;;;;;;19.60;35.80;;;;;;8399772;28;19932;-44
2023/04/21 01:23:41;;;;;;;;;;;19.60;35.80;;;;;;8399911;28;19917;-44
2023/04/21 01:27:41;;;;;;;;;;;19.60;35.80;;;;;;8399135;28;19917;-44
2023/04/21 01:31:42;;;;;;;;;;;19.50;35.70;;;;;;8399625;28;20069;-44
2023/04/21 01:35:43;;;;;;;;;;;19.50;35.70;;;;;;8399790;28;19970;-44
2023/04/21 01:39:45;;;;;;;;;;;19.50;35.80;;;;;;8399396;28;19932;-44
2023/04/21 01:43:45;;;;;;;;;;;19.50;35.80;;;;;;8399340;28;19917;-44
2023/04/21 01:47:46;;;;;;;;;;;19.50;35.80;;;;;;8399221;28;19920;-44
2023/04/21 01:51:46;;;;;;;;;;;19.50;35.80;;;;;;8398760;28;19948;-44
2023/04/21 01:55:47;;;;;;;;;;;19.50;35.70;;;;;;8398989;28;19912;-44
2023/04/21 01:59:48;;;;;;;;;;;19.50;35.70;;;;;;8398586;28;19924;-44
2023/04/21 02:03:48;;;;;;;;;;;19.40;35.70;;;;;;8398325;28;20015;-44
2023/04/21 02:07:49;;;;;;;;;;;19.40;35.70;;;;;;8398286;28;19919;-44
2023/04/21 02:11:49;;;;;;;;;;;19.40;35.60;;;;;;8397782;28;19956;-45
2023/04/21 02:15:50;;;;;;;;;;;19.40;35.60;;;;;;8398236;28;19913;-45
2023/04/21 02:19:51;;;;;;;;;;;19.40;35.60;;;;;;8396895;28;19924;-45
2023/04/21 02:23:51;;;;;;;;;;;19.40;35.60;;;;;;8397532;28;19912;-44
2023/04/21 02:27:52;;;;;;;;;;;19.40;35.60;;;;;;8397938;28;19917;-46
2023/04/21 02:31:52;;;;;;;;;;;19.40;35.70;;;;;;8397716;28;19913;-46
2023/04/21 02:35:52;;;;;;;;;;;19.40;35.60;;;;;;8397125;28;19923;-45
2023/04/21 02:39:53;;;;;;;;;;;19.30;35.60;;;;;;8397394;28;19964;-45
2023/04/21 02:43:53;;;;;;;;;;;19.30;35.60;;;;;;8397164;28;19917;-44
2023/04/21 02:47:54;;;;;;;;;;;19.30;35.60;;;;;;8396619;28;20369;-44
2023/04/21 02:51:54;;;;;;;;;;;19.30;35.60;;;;;;8396705;28;19966;-45
2023/04/21 02:55:55;;;;;;;;;;;19.30;35.60;;;;;;8397097;28;20020;-45
2023/04/21 02:59:55;;;;;;;;;;;19.30;35.60;;;;;;8396152;28;20439;-43
2023/04/21 03:03:56;;;;;;;;;;;19.20;35.50;;;;;;8396699;28;19927;-45
2023/04/21 03:07:56;;;;;;;;;;;19.30;35.60;;;;;;8396295;28;19913;-44
2023/04/21 03:11:56;;;;;;;;;;;19.20;35.50;;;;;;8395706;28;19917;-45
2023/04/21 03:15:57;;;;;;;;;;;19.20;35.60;;;;;;8396241;28;20285;-44
2023/04/21 03:19:57;;;;;;;;;;;19.20;35.60;;;;;;8395983;28;19924;-44
2023/04/21 03:23:58;;;;;;;;;;;19.20;35.50;;;;;;8395607;28;19913;-44
2023/04/21 03:27:58;;;;;;;;;;;19.20;35.50;;;;;;8395758;28;19921;-44
2023/04/21 03:31:59;;;;;;;;;;;19.30;35.50;;;;;;8395348;28;19958;-44
2023/04/21 03:35:59;;;;;;;;;;;19.30;35.50;;;;;;8395489;28;19916;-45
2023/04/21 03:39:59;;;;;;;;;;;19.20;35.40;;;;;;8395555;28;20346;-44
2023/04/21 03:44:00;;;;;;;;;;;19.20;35.40;;;;;;8395486;28;19928;-44
2023/04/21 03:48:00;;;;;;;;;;;19.20;35.40;;;;;;8394753;28;19923;-45
2023/04/21 03:52:01;;;;;;;;;;;19.20;35.40;;;;;;8395328;28;19912;-44
2023/04/21 03:56:02;;;;;;;;;;;19.30;35.40;;;;;;8395410;28;19923;-44
2023/04/21 04:00:04;;;;;;;;;;;19.20;35.40;;;;;;8394486;28;20412;-44
2023/04/21 04:04:04;;;;;;;;;;;19.20;35.40;;;;;;8394348;28;19931;-44
2023/04/21 04:08:05;;;;;;;;;;;19.20;35.40;;;;;;8394689;28;19913;-45
2023/04/21 04:12:06;;;;;;;;;;;19.30;35.50;;;;;;8394419;28;20348;-45
2023/04/21 04:16:06;;;;;;;;;;;19.30;35.40;;;;;;8395554;28;20447;-44
2023/04/21 04:20:07;;;;;;;;;;;19.40;35.30;;;;;;8395159;28;19933;-44
2023/04/21 04:24:08;;;;;;;;;;;19.60;35.30;;;;;;8393152;28;19924;-45
2023/04/21 04:28:09;;;;;;;;;;;19.70;35.20;;;;;;8395443;28;20397;-44
2023/04/21 04:32:09;;;;;;;;;;;19.80;35.20;;;;;;8395296;28;19916;-44
2023/04/21 04:36:13;;;;;;;;;;;19.90;35.10;;;;;;8394945;28;19923;-44
2023/04/21 04:40:14;;;;;;;;;;;20.00;35.10;;;;;;8395074;28;19924;-44
2023/04/21 04:44:16;;;;;;;;;;;20.00;35.00;;;;;;8397754;28;19923;-43
2023/04/21 04:48:17;;;;;;;;;;;20.00;34.90;;;;;;8399253;28;19947;-43
2023/04/21 04:52:17;;;;;;;;;;;20.10;35.00;;;;;;8401089;28;20316;-43
2023/04/21 04:56:18;;;;;;;;;;;20.10;35.00;;;;;;8400942;28;20141;-43
2023/04/21 05:00:18;;;;;;;;;;;20.10;35.00;;;;;;8399631;28;20280;-43
2023/04/21 05:04:19;;;;;;;;;;;20.10;34.90;;;;;;8400411;28;20400;-43
2023/04/21 05:08:19;;;;;;;;;;;20.10;34.90;;;;;;8400533;28;19999;-43
2023/04/21 05:12:20;;;;;;;;;;;20.10;35.00;;;;;;8399856;28;20003;-44
2023/04/21 05:16:20;;;;;;;;;;;20.10;35.00;;;;;;8400077;28;19917;-43
2023/04/21 05:20:22;;;;;;;;;;;20.00;35.00;;;;;;8399154;28;21314;-44
2023/04/21 05:24:23;;;;;;;;;;;20.00;35.00;;;;;;8399284;28;19917;-44
2023/04/21 05:28:23;;;;;;;;;;;20.00;35.00;;;;;;8400018;28;19913;-44
2023/04/21 05:32:24;;;;;;;;;;;19.90;35.00;;;;;;8398197;28;20362;-43
2023/04/21 05:36:24;;;;;;;;;;;19.90;35.00;;;;;;8399181;28;19917;-43
2023/04/21 05:40:25;;;;;;;;;;;19.90;35.00;;;;;;8399205;28;20381;-43
2023/04/21 05:44:25;;;;;;;;;;;20.00;35.10;;;;;;8399046;28;20689;-44
2023/04/21 05:48:25;;;;;;;;;;;19.90;35.10;;;;;;8398584;28;19974;-43
2023/04/21 05:52:26;;;;;;;;;;;19.90;35.10;;;;;;8399084;28;20396;-44
2023/04/21 05:56:26;;;;;;;;;;;20.00;35.00;;;;;;8398747;28;19916;-44
2023/04/21 06:00:27;;;;;;;;;;;20.10;35.00;;;;;;8398269;28;19924;-45
2023/04/21 06:04:27;;;;;;;;;;;20.10;34.90;;;;;;8398634;28;19924;-46
2023/04/21 06:08:28;;;;;;;;;;;20.20;34.90;;;;;;8398149;28;19912;-46
2023/04/21 06:12:28;;;;;;;;;;;20.20;34.80;;;;;;8398067;28;19924;-45
2023/04/21 06:16:32;;;;;;;;;;;20.30;34.80;;;;;;8398133;28;20391;-43
2023/04/21 06:20:33;;;;;;;;;;;20.30;34.70;;;;;;8397933;28;20396;-43
2023/04/21 06:24:33;;;;;;;;;;;20.40;34.70;;;;;;8397167;28;19916;-44
2023/04/21 06:28:35;;;;;;;;;;;20.40;34.70;;;;;;8397742;28;20258;-42
2023/04/21 06:32:35;;;;;;;;;;;20.40;34.60;;;;;;8398067;28;19916;-44
2023/04/21 06:36:35;;;;;;;;;;;20.40;34.70;;;;;;8397070;28;19917;-43
2023/04/21 06:40:36;;;;;;;;;;;20.40;34.70;;;;;;8397164;28;19994;-45
2023/04/21 06:44:37;;;;;;;;;;;20.50;34.60;;;;;;8397241;28;19913;-45
2023/04/21 06:48:37;;;;;;;;;;;20.50;34.60;;;;;;8396634;28;20345;-46
2023/04/21 06:52:38;;;;;;;;;;;20.40;34.50;;;;;;8397264;28;19916;-44
2023/04/21 06:56:40;;;;;;;;;;;20.40;34.60;;;;;;8396793;28;20011;-44
2023/04/21 07:00:40;;;;;;;;;;;20.40;34.60;;;;;;8395801;28;19931;-46
2023/04/21 07:04:41;;;;;;;;;;;20.40;34.70;;;;;;8396540;28;20012;-45
2023/04/21 07:08:41;;;;;;;;;;;20.40;34.70;;;;;;8394555;28;19916;-45
2023/04/21 07:12:42;;;;;;;;;;;20.30;34.70;;;;;;8395054;28;19917;-46
2023/04/21 07:16:42;;;;;;;;;;;20.30;34.70;;;;;;8396508;28;19917;-46
2023/04/21 07:20:43;;;;;;;;;;;20.30;34.70;;;;;;8395884;28;20305;-44
2023/04/21 07:24:43;;;;;;;;;;;20.30;34.80;;;;;;8395750;28;20301;-44
2023/04/21 07:28:44;;;;;;;;;;;20.20;34.70;;;;;;8395789;28;20370;-45
2023/04/21 07:32:45;;;;;;;;;;;20.20;34.80;;;;;;8396250;28;19940;-45
2023/04/21 07:36:45;;;;;;;;;;;20.20;34.80;;;;;;8395144;28;19917;-43
2023/04/21 07:40:46;;;;;;;;;;;20.20;34.80;;;;;;8395580;28;20374;-45
2023/04/21 07:44:47;;;;;;;;;;;20.20;34.80;;;;;;8395671;28;19916;-43
2023/04/21 07:48:48;;;;;;;;;;;20.20;34.80;;;;;;8395124;28;19917;-45
2023/04/21 07:52:48;;;;;;;;;;;20.20;34.80;;;;;;8395973;28;19916;-45
2023/04/21 07:56:48;;;;;;;;;;;20.20;34.80;;;;;;8395028;28;20019;-42
2023/04/21 08:00:49;;;;;;;;;;;20.20;34.90;;;;;;8395027;28;19939;-44
2023/04/21 08:04:50;;;;;;;;;;;20.20;34.90;;;;;;8395183;28;20314;-45
2023/04/21 08:08:50;;;;;;;;;;;20.20;34.90;;;;;;8394834;28;19916;-45
2023/04/21 08:12:50;;;;;;;;;;;20.20;34.90;;;;;;8395343;28;20249;-45
2023/04/21 08:16:51;;;;;;;;;;;20.20;34.90;;;;;;8395186;28;19916;-45
2023/04/21 08:20:51;;;;;;;;;;;20.20;34.90;;;;;;8401222;28;19931;-44
2023/04/21 08:24:52;;;;;;;;;;;20.20;34.90;;;;;;8402073;28;19916;-44
2023/04/21 08:28:53;;;;;;;;;;;20.20;34.90;;;;;;8401847;28;19938;-48
2023/04/21 08:32:53;;;;;;;;;;;20.20;34.90;;;;;;8401435;28;20372;-44
2023/04/21 08:36:53;;;;;;;;;;;20.20;34.90;;;;;;8401149;28;20285;-44
2023/04/21 08:40:54;;;;;;;;;;;20.20;34.90;;;;;;8401185;28;20294;-45
2023/04/21 08:44:55;;;;;;;;;;;20.20;34.90;;;;;;8400630;28;20016;-44
2023/04/21 08:48:57;;;;;;;;;;;20.20;34.90;;;;;;8401103;28;19913;-45
2023/04/21 08:52:57;;;;;;;;;;;20.20;34.90;;;;;;8400990;28;19917;-45
2023/04/21 08:56:58;;;;;;;;;;;20.20;34.90;;;;;;8400381;28;20400;-43
2023/04/21 09:00:58;;;;;;;;;;;20.20;35.00;;;;;;8400562;28;20112;-45
2023/04/21 09:04:59;;;;;;;;;;;20.20;34.90;;;;;;8400624;28;19931;-45
2023/04/21 09:09:00;;;;;;;;;;;20.20;34.90;;;;;;8399989;28;20030;-45
2023/04/21 09:13:10;;;;;;;;;;;20.20;35.00;;;;;;8400201;28;19924;-46
2023/04/21 09:17:11;;;;;;;;;;;20.20;35.00;;;;;;8400051;28;20297;-45
2023/04/21 09:21:15;;;;;;;;;;;20.20;35.00;;;;;;8399397;28;19924;-44
2023/04/21 09:25:16;;;;;;;;;;;20.20;35.00;;;;;;8399912;28;19999;-46
2023/04/21 09:29:17;;;;;;;;;;;20.30;35.00;;;;;;8399012;28;19912;-45
2023/04/21 09:33:17;;;;;;;;;;;20.30;35.10;;;;;;8399341;28;20282;-46
2023/04/21 09:37:23;;;;;;;;;;;20.30;35.00;;;;;;8399428;28;20366;-45
2023/04/21 09:41:24;;;;;;;;;;;20.30;35.00;;;;;;8399279;28;20335;-46
2023/04/21 09:45:25;;;;;;;;;;;20.30;35.10;;;;;;8398600;28;20297;-45
2023/04/21 09:49:28;;;;;;;;;;;20.30;35.10;;;;;;8398966;28;19928;-45
2023/04/21 09:53:31;;;;;;;;;;;20.30;35.10;;;;;;8399425;28;20019;-44
2023/04/21 09:57:34;;;;;;;;;;;20.40;35.10;;;;;;8398162;28;20375;-45
2023/04/21 10:01:37;;;;;;;;;;;20.40;35.10;;;;;;8398456;28;19952;-46
2023/04/21 10:05:38;;;;;;;;;;;20.40;35.10;;;;;;8398372;28;19921;-46
2023/04/21 10:09:57;;;;;;;;;;;20.40;35.10;;;;;;8396986;28;20395;-44
2023/04/21 10:13:58;;;;;;;;;;;20.40;35.10;;;;;;8398518;28;19913;-45
2023/04/21 10:18:12;;;;;;;;;;;20.40;35.10;;;;;;8397650;28;20378;-43
2023/04/21 10:22:13;;;;;;;;;;;20.40;35.10;;;;;;8398192;28;20008;-45
2023/04/21 10:26:16;;;;;;;;;;;20.40;35.20;;;;;;8397998;28;20578;-44
2023/04/21 10:30:21;;;;;;;;;;;20.40;35.20;;;;;;8397224;28;19916;-45
2023/04/21 10:34:28;;;;;;;;;;;20.40;35.10;;;;;;8398035;28;19913;-44
2023/04/21 10:38:39;;;;;;;;;;;20.40;35.10;;;;;;8397723;28;19932;-44
2023/04/21 10:42:40;;;;;;;;;;;20.50;35.20;;;;;;8396037;28;19969;-44
2023/04/21 10:46:47;;;;;;;;;;;20.50;35.20;;;;;;8397335;28;19917;-43
2023/04/21 10:50:48;;;;;;;;;;;20.50;35.20;;;;;;8397029;28;20378;-44
2023/04/21 10:54:49;;;;;;;;;;;20.50;35.10;;;;;;8396357;28;19913;-45
2023/04/21 10:58:51;;;;;;;;;;;20.50;35.10;;;;;;8397076;28;19924;-44
2023/04/21 11:02:52;;;;;;;;;;;20.50;35.10;;;;;;8396112;28;20016;-44
2023/04/21 11:07:09;;;;;;;;;;;20.50;35.20;;;;;;8396354;28;19951;-44
2023/04/21 11:11:20;;;;;;;;;;;20.50;35.20;;;;;;8396614;28;19921;-44
2023/04/21 11:15:20;;;;;;;;;;;20.60;35.20;;;;;;8396115;28;20429;-43
2023/04/21 11:19:23;;;;;;;;;;;20.60;35.20;;;;;;8396861;28;19928;-45
2023/04/21 11:23:23;;;;;;;;;;;20.60;35.20;;;;;;8396289;28;19920;-45
2023/04/21 11:27:28;;;;;;;;;;;20.60;35.30;;;;;;8395690;28;19961;-44
2023/04/21 11:31:29;;;;;;;;;;;20.50;35.20;;;;;;8396136;28;20016;-44
2023/04/21 11:35:30;;;;;;;;;;;20.50;35.20;;;;;;8395993;28;19920;-45
2023/04/21 11:39:30;;;;;;;;;;;20.60;35.20;;;;;;8395649;28;20385;-44
2023/04/21 11:43:31;;;;;;;;;;;20.60;35.30;;;;;;8396133;28;20364;-43
2023/04/21 11:47:31;;;;;;;;;;;20.50;35.20;;;;;;8395715;28;19916;-44
2023/04/21 11:51:32;;;;;;;;;;;20.60;35.30;;;;;;8395066;28;20413;-45
2023/04/21 11:55:33;;;;;;;;;;;20.60;35.30;;;;;;8395544;28;19916;-45
2023/04/21 11:59:33;;;;;;;;;;;20.50;35.20;;;;;;8395692;28;19920;-46
2023/04/21 12:03:34;;;;;;;;;;;20.60;35.30;;;;;;8395183;28;19920;-44
2023/04/21 12:07:36;;;;;;;;;;;20.60;35.70;;;;;;8395140;28;19986;-44
2023/04/21 12:11:37;;;;;;;;;;;20.60;35.40;;;;;;8393283;28;20000;-45
2023/04/21 12:15:37;;;;;;;;;;;20.50;35.40;;;;;;8367755;28;20289;-44
2023/04/21 12:19:39;;;;;;;;;;;20.60;35.40;;;;;;8381047;28;20416;-42
2023/04/21 12:23:39;;;;;;;;;;;20.50;35.40;;;;;;8375853;28;20336;-43
2023/04/21 12:27:47;;;;;;;;;;;20.50;35.40;;;;;;8378508;28;19917;-46
2023/04/21 12:31:47;;;;;;;;;;;20.50;35.40;;;;;;8379303;28;20396;-44
2023/04/21 12:35:48;;;;;;;;;;;20.50;35.40;;;;;;8377941;28;19924;-42
2023/04/21 12:39:48;;;;;;;;;;;20.60;35.40;;;;;;8375659;28;19928;-51
2023/04/21 12:43:49;;;;;;;;;;;20.60;35.40;;;;;;8376523;28;20390;-43
2023/04/21 12:47:49;;;;;;;;;;;20.60;35.40;;;;;;8380391;28;19921;-42
2023/04/21 12:51:50;;;;;;;;;;;20.60;35.40;;;;;;8378073;28;19924;-44
2023/04/21 12:55:50;;;;;;;;;;;20.60;35.30;;;;;;8383717;28;19916;-43
2023/04/21 12:59:51;;;;;;;;;;;20.60;35.40;;;;;;8386353;28;19924;-44
2023/04/21 13:03:51;;;;;;;;;;;20.60;35.40;;;;;;8385869;28;19960;-44
2023/04/21 13:07:52;;;;;;;;;;;20.70;35.40;;;;;;8393858;28;19917;-44
2023/04/21 13:11:52;;;;;;;;;;;20.70;35.40;;;;;;8393695;28;19923;-45
2023/04/21 13:15:53;;;;;;;;;;;20.70;35.30;;;;;;8380622;28;20388;-44
2023/04/21 13:19:53;;;;;;;;;;;20.60;35.30;;;;;;8380270;28;19925;-44
2023/04/21 13:23:55;;;;;;;;;;;20.60;35.30;;;;;;8382532;28;19921;-44
2023/04/21 13:27:55;;;;;;;;;;;20.60;35.40;;;;;;8381151;28;19925;-45
2023/04/21 13:31:55;;;;;;;;;;;20.60;35.40;;;;;;8381626;28;19924;-44
2023/04/21 13:35:56;;;;;;;;;;;20.60;35.30;;;;;;8382622;28;20403;-43
2023/04/21 13:39:56;;;;;;;;;;;20.60;35.40;;;;;;8385114;28;19924;-43
2023/04/21 13:43:57;;;;;;;;;;;20.60;35.30;;;;;;8378657;28;19917;-44
2023/04/21 13:47:57;;;;;;;;;;;20.60;35.40;;;;;;8379738;28;19916;-41
2023/04/21 13:51:58;;;;;;;;;;;20.60;35.40;;;;;;8381917;28;19944;-44
2023/04/21 13:55:58;;;;;;;;;;;20.60;35.40;;;;;;8380742;28;20358;-43
2023/04/21 13:59:59;;;;;;;;;;;20.60;35.50;;;;;;8383408;28;19937;-44
2023/04/21 14:03:59;;;;;;;;;;;20.60;35.50;;;;;;8381185;28;19970;-43
2023/04/21 14:08:00;;;;;;;;;;;20.50;35.40;;;;;;8380625;28;20460;-44
2023/04/21 14:12:02;;;;;;;;;;;20.60;35.50;;;;;;8379839;28;19971;-45
2023/04/21 14:16:02;;;;;;;;;;;20.60;35.60;;;;;;8390653;28;19917;-46
2023/04/21 14:20:03;;;;;;;;;;;20.60;35.60;;;;;;8394395;28;20297;-44
2023/04/21 14:24:03;;;;;;;;;;;20.50;35.60;;;;;;8382879;28;19986;-45
2023/04/21 14:28:07;;;;;;;;;;;20.50;35.60;;;;;;8383357;28;19917;-44
2023/04/21 14:32:08;;;;;;;;;;;20.60;35.70;;;;;;8379536;28;20404;-44
2023/04/21 14:36:10;;;;;;;;;;;20.50;35.60;;;;;;8380476;28;19924;-45
2023/04/21 14:40:10;;;;;;;;;;;20.50;35.60;;;;;;8375641;28;20597;-44
2023/04/21 14:44:10;;;;;;;;;;;20.50;35.70;;;;;;8394438;28;20393;-44
2023/04/21 14:48:12;;;;;;;;;;;20.50;35.70;;;;;;8382578;28;20331;-43
2023/04/21 14:52:13;;;;;;;;;;;20.50;35.70;;;;;;8375990;28;20374;-45
2023/04/21 14:56:14;;;;;;;;;;;20.50;35.80;;;;;;8385385;28;19924;-43
2023/04/21 15:00:15;;;;;;;;;;;20.50;35.70;;;;;;8393720;28;19947;-44
2023/04/21 15:04:15;;;;;;;;;;;20.50;35.70;;;;;;8382032;28;19921;-45
2023/04/21 15:08:17;;;;;;;;;;;20.50;35.80;;;;;;8385763;28;20368;-44
2023/04/21 15:12:17;;;;;;;;;;;20.50;35.90;;;;;;8383868;28;19917;-43
2023/04/21 15:16:18;;;;;;;;;;;20.60;35.80;;;;;;8378283;28;19963;-43
2023/04/21 15:20:18;;;;;;;;;;;20.70;35.80;;;;;;8364456;28;20282;-44
2023/04/21 15:24:19;;;;;;;;;;;20.70;35.70;;;;;;8363037;28;20290;-43
2023/04/21 15:28:19;;;;;;;;;;;20.80;35.70;;;;;;8388149;28;19927;-45
2023/04/21 15:32:20;;;;;;;;;;;20.90;35.60;;;;;;8381537;28;20051;-43
2023/04/21 15:36:20;;;;;;;;;;;20.90;36.00;;;;;;8380717;28;21102;-44
2023/04/21 15:40:21;;;;;;;;;;;21.00;35.40;;;;;;8383942;28;19932;-44
2023/04/21 15:44:21;;;;;;;;;;;21.00;35.40;;;;;;8387698;28;20385;-45
2023/04/21 15:48:21;;;;;;;;;;;21.10;35.40;;;;;;8390336;28;20400;-43
2023/04/21 15:52:22;;;;;;;;;;;21.10;35.40;;;;;;8371662;28;19962;-44
2023/04/21 15:56:23;;;;;;;;;;;21.20;35.50;;;;;;8368765;28;19952;-43
2023/04/21 16:00:23;;;;;;;;;;;21.20;35.50;;;;;;8385330;28;20373;-43
2023/04/21 16:04:24;;;;;;;;;;;21.20;35.60;;;;;;8389311;28;19942;-44
2023/04/21 16:08:25;;;;;;;;;;;21.20;35.50;;;;;;8391047;28;20000;-44
2023/04/21 16:12:26;;;;;;;;;;;21.20;35.50;;;;;;8392144;28;19939;-44
2023/04/21 16:16:26;;;;;;;;;;;21.20;35.60;;;;;;8372626;28;19924;-46
2023/04/21 16:20:27;;;;;;;;;;;21.20;35.50;;;;;;8367574;28;19925;-45
2023/04/21 16:24:28;;;;;;;;;;;21.20;35.50;;;;;;8384047;28;19917;-46
2023/04/21 16:28:28;;;;;;;;;;;21.10;35.50;;;;;;8380672;28;19920;-44
2023/04/21 16:32:30;;;;;;;;;;;21.10;35.60;;;;;;8373217;28;20370;-43
2023/04/21 16:36:31;;;;;;;;;;;21.10;35.60;;;;;;8376882;28;20374;-44
2023/04/21 16:40:31;;;;;;;;;;;21.10;35.70;;;;;;8392014;28;19967;-43
2023/04/21 16:44:32;;;;;;;;;;;21.00;35.60;;;;;;8399842;28;20384;-44
2023/04/21 16:48:32;;;;;;;;;;;21.00;35.70;;;;;;8387861;28;20446;-43
2023/04/21 16:52:33;;;;;;;;;;;21.00;35.70;;;;;;8383231;28;19977;-45
2023/04/21 16:56:34;;;;;;;;;;;21.00;35.70;;;;;;8384850;28;19924;-43
2023/04/21 17:00:35;;;;;;;;;;;21.00;35.60;;;;;;8390899;28;19932;-43
2023/04/21 17:04:38;;;;;;;;;;;21.10;35.60;;;;;;8395888;28;19954;-45
2023/04/21 17:08:39;;;;;;;;;;;21.10;35.70;;;;;;8396749;28;19916;-44
2023/04/21 17:12:39;;;;;;;;;;;21.10;35.70;;;;;;8394735;28;20407;-44
2023/04/21 17:16:40;;;;;;;;;;;21.10;35.60;;;;;;8399561;28;20389;-44
2023/04/21 17:20:40;;;;;;;;;;;21.10;35.70;;;;;;8399050;28;19999;-43
2023/04/21 17:24:40;;;;;;;;;;;21.10;35.70;;;;;;8393310;28;19920;-44
2023/04/21 17:28:41;;;;;;;;;;;21.10;35.60;;;;;;8395605;28;19950;-45
2023/04/21 17:32:42;;;;;;;;;;;21.10;35.70;;;;;;8389071;28;20329;-44
2023/04/21 17:36:43;;;;;;;;;;;21.10;35.60;;;;;;8397610;28;19916;-44
2023/04/21 17:40:44;;;;;;;;;;;21.20;35.60;;;;;;8397376;28;19925;-44
2023/04/21 17:44:44;;;;;;;;;;;21.20;35.60;;;;;;8392285;28;19924;-44
2023/04/21 17:48:44;;;;;;;;;;;21.20;35.60;;;;;;8399005;28;19975;-44
2023/04/21 17:52:45;;;;;;;;;;;21.20;35.60;;;;;;8395429;28;19912;-44
2023/04/21 17:56:45;;;;;;;;;;;21.10;35.50;;;;;;8374921;28;19927;-44
2023/04/21 18:00:46;;;;;;;;;;;21.20;35.60;;;;;;8392040;28;19924;-44
2023/04/21 18:04:46;;;;;;;;;;;21.20;36.20;;;;;;8377830;28;19929;-44
2023/04/21 18:08:47;;;;;;;;;;;21.20;35.60;;;;;;8382944;28;20382;-44
2023/04/21 18:12:47;;;;;;;;;;;21.20;35.60;;;;;;8372698;28;19955;-44
2023/04/21 18:16:48;;;;;;;;;;;21.20;35.60;;;;;;8387778;28;19924;-44
2023/04/21 18:20:48;;;;;;;;;;;21.20;35.60;;;;;;8383825;28;20016;-43
2023/04/21 18:24:49;;;;;;;;;;;21.20;35.60;;;;;;8365354;28;19917;-44
2023/04/21 18:28:49;;;;;;;;;;;21.20;35.60;;;;;;8391152;28;19970;-44
2023/04/21 18:32:50;;;;;;;;;;;21.20;35.60;;;;;;8375229;28;19920;-44
2023/04/21 18:36:50;;;;;;;;;;;21.20;35.60;;;;;;8386561;28;19951;-44
2023/04/21 18:40:51;;;;;;;;;;;21.20;35.70;;;;;;8376385;28;20059;-44
2023/04/21 18:44:52;;;;;;;;;;;21.20;35.60;;;;;;8387462;28;19917;-45
2023/04/21 18:48:52;;;;;;;;;;;21.20;35.60;;;;;;8397080;28;19969;-44
2023/04/21 18:52:53;;;;;;;;;;;21.20;35.70;;;;;;8396967;28;19913;-44
2023/04/21 18:56:54;;;;;;;;;;;21.20;35.70;;;;;;8396949;28;19920;-43
2023/04/21 19:00:54;;;;;;;;;;;21.20;35.70;;;;;;8397219;28;20270;-43
2023/04/21 19:04:55;;;;;;;;;;;21.20;35.70;;;;;;8396136;28;19974;-45
2023/04/21 19:08:56;;;;;;;;;;;21.20;35.70;;;;;;8395113;28;20285;-43
2023/04/21 19:12:57;;;;;;;;;;;21.20;35.70;;;;;;8396618;28;19995;-44
2023/04/21 19:16:57;;;;;;;;;;;21.20;35.80;;;;;;8396339;28;19917;-44
2023/04/21 19:20:57;;;;;;;;;;;21.10;35.80;;;;;;8396076;28;19921;-44
2023/04/21 19:24:59;;;;;;;;;;;21.20;35.90;;;;;;8396221;28;19917;-44
2023/04/21 19:29:00;;;;;;;;;;;21.10;35.90;;;;;;8396324;28;20384;-44
2023/04/21 19:33:00;;;;;;;;;;;21.10;35.90;;;;;;8395890;28;19921;-43
2023/04/21 19:37:01;;;;;;;;;;;21.10;36.00;;;;;;8396169;28;19920;-44
2023/04/21 19:41:01;;;;;;;;;;;21.10;35.90;;;;;;8395765;28;19932;-45
2023/04/21 19:45:01;;;;;;;;;;;21.10;35.90;;;;;;8395534;28;19936;-44
2023/04/21 19:49:02;;;;;;;;;;;21.10;35.90;;;;;;8396128;28;19912;-43
2023/04/21 19:53:02;;;;;;;;;;;21.10;36.00;;;;;;8396065;28;19924;-44
2023/04/21 19:57:03;;;;;;;;;;;21.10;35.90;;;;;;8395170;28;19923;-44
2023/04/21 20:01:03;;;;;;;;;;;21.10;35.90;;;;;;8395415;28;19931;-43
2023/04/21 20:05:05;;;;;;;;;;;21.10;35.90;;;;;;8395488;28;20038;-44
2023/04/21 20:09:05;;;;;;;;;;;21.10;35.90;;;;;;8395033;28;19916;-44
2023/04/21 20:13:05;;;;;;;;;;;21.10;35.80;;;;;;8396097;28;19962;-44
2023/04/21 20:17:06;;;;;;;;;;;21.10;35.80;;;;;;8402144;28;19917;-44
2023/04/21 20:21:06;;;;;;;;;;;21.10;35.80;;;;;;8401626;28;19962;-43
2023/04/21 20:25:07;;;;;;;;;;;21.10;35.90;;;;;;8402025;28;20003;-44
2023/04/21 20:29:08;;;;;;;;;;;21.10;35.90;;;;;;8402023;28;19979;-43
2023/04/21 20:33:08;;;;;;;;;;;21.10;35.80;;;;;;8401785;28;19970;-44
2023/04/21 20:37:11;;;;;;;;;;;21.20;35.80;;;;;;8401668;28;19923;-44
2023/04/21 20:41:12;;;;;;;;;;;21.20;35.90;;;;;;8401506;28;20006;-44
2023/04/21 20:45:12;;;;;;;;;;;21.20;35.90;;;;;;8400910;28;19916;-44
2023/04/21 20:49:13;;;;;;;;;;;21.20;35.80;;;;;;8401456;28;19991;-45
2023/04/21 20:53:13;;;;;;;;;;;21.20;35.80;;;;;;8401459;28;19995;-44
2023/04/21 20:57:14;;;;;;;;;;;21.20;35.80;;;;;;8400497;28;20121;-43
2023/04/21 21:01:15;;;;;;;;;;;21.20;35.90;;;;;;8400932;28;19924;-43
2023/04/21 21:05:15;;;;;;;;;;;21.20;35.90;;;;;;8400745;28;19921;-44
2023/04/21 21:09:17;;;;;;;;;;;21.20;35.80;;;;;;8400244;28;19917;-45
2023/04/21 21:13:18;;;;;;;;;;;21.10;35.80;;;;;;8401286;28;19913;-45
2023/04/21 21:17:18;;;;;;;;;;;21.10;35.80;;;;;;8400269;28;19916;-44
2023/04/21 21:21:19;;;;;;;;;;;21.10;35.80;;;;;;8399661;28;19947;-44
2023/04/21 21:25:19;;;;;;;;;;;21.10;35.80;;;;;;8399276;28;19917;-44
2023/04/21 21:29:20;;;;;;;;;;;21.10;35.80;;;;;;8400202;28;20308;-43
2023/04/21 21:33:20;;;;;;;;;;;21.10;35.80;;;;;;8399731;28;20882;-43
2023/04/21 21:37:22;;;;;;;;;;;21.10;35.80;;;;;;8399801;28;19916;-43
2023/04/21 21:41:23;;;;;;;;;;;21.00;35.80;;;;;;8399502;28;19929;-43
2023/04/21 21:45:23;;;;;;;;;;;21.00;35.80;;;;;;8398870;28;20327;-43
2023/04/21 21:49:23;;;;;;;;;;;21.00;35.80;;;;;;8399379;28;19923;-44
2023/04/21 21:53:24;;;;;;;;;;;21.00;35.80;;;;;;8399476;28;19913;-44
2023/04/21 21:57:24;;;;;;;;;;;21.00;35.80;;;;;;8398623;28;19916;-44
2023/04/21 22:01:25;;;;;;;;;;;20.90;35.80;;;;;;8394867;28;19925;-44
2023/04/21 22:05:25;;;;;;;;;;;20.90;35.80;;;;;;8377715;28;19927;-44
2023/04/21 22:09:26;;;;;;;;;;;20.90;35.80;;;;;;8397092;28;20011;-44
2023/04/21 22:13:27;;;;;;;;;;;20.90;35.80;;;;;;8398802;28;20297;-45
2023/04/21 22:17:28;;;;;;;;;;;20.90;35.80;;;;;;8398335;28;20008;-44
2023/04/21 22:21:28;;;;;;;;;;;20.80;35.80;;;;;;8398190;28;20282;-43
2023/04/21 22:25:29;;;;;;;;;;;20.80;35.80;;;;;;8398385;28;19921;-43
2023/04/21 22:29:30;;;;;;;;;;;20.80;35.80;;;;;;8398121;28;20393;-44
2023/04/21 22:33:30;;;;;;;;;;;20.80;35.90;;;;;;8397871;28;19916;-44
2023/04/21 22:37:30;;;;;;;;;;;20.80;36.40;;;;;;8398195;28;19920;-43
2023/04/21 22:41:31;;;;;;;;;;;20.80;35.90;;;;;;8397705;28;19925;-44
2023/04/21 22:45:31;;;;;;;;;;;20.70;35.90;;;;;;8396976;28;19916;-44
2023/04/21 22:49:32;;;;;;;;;;;20.70;35.90;;;;;;8397333;28;19943;-43
2023/04/21 22:53:32;;;;;;;;;;;20.70;36.00;;;;;;8397504;28;19912;-42
2023/04/21 22:57:34;;;;;;;;;;;20.70;36.00;;;;;;8396841;28;20003;-42
2023/04/21 23:01:35;;;;;;;;;;;20.60;35.90;;;;;;8397032;28;19931;-43
2023/04/21 23:05:35;;;;;;;;;;;20.60;36.00;;;;;;8396892;28;19956;-43
2023/04/21 23:09:36;;;;;;;;;;;20.60;35.90;;;;;;8396447;28;19913;-43
2023/04/21 23:13:36;;;;;;;;;;;20.60;36.00;;;;;;8396890;28;19920;-42
2023/04/21 23:17:37;;;;;;;;;;;20.60;36.00;;;;;;8396664;28;20270;-43
2023/04/21 23:21:37;;;;;;;;;;;20.60;36.00;;;;;;8395856;28;19932;-43